Time;durP1;ratioP1;P1;durP2;ratioP2;P2;SDS_P1;SDS_P2;PMS_P1;PMS_P2;Temp;Humidity;BMP_temperature;BMP_pressure;BME280_temperature;BME280_humidity;BME280_pressure;Samples;Min_cycle;Max_cycle;Signal;HPM_P1;HPM_P2
2022/01/27 00:01:26;;;;;;;33.85;14.50;;;6.10;99.90;;;;;;6143838;23;20028;-75
2022/01/27 00:06:33;;;;;;;33.40;15.43;;;6.10;99.90;;;;;;6185334;23;20059;-75
2022/01/27 00:09:09;;;;;;;34.30;15.35;;;6.10;99.90;;;;;;6185762;23;20024;-75
2022/01/27 00:11:35;;;;;;;40.08;16.60;;;6.10;99.90;;;;;;6186274;23;20024;-75
2022/01/27 00:14:02;;;;;;;30.25;14.88;;;6.10;99.90;;;;;;6184843;23;20436;-75
2022/01/27 00:16:31;;;;;;;31.58;14.05;;;6.10;99.90;;;;;;6185867;23;20092;-75
2022/01/27 00:18:57;;;;;;;33.80;16.13;;;6.10;99.90;;;;;;6185700;23;20017;-75
2022/01/27 00:21:28;;;;;;;38.85;15.80;;;6.10;99.90;;;;;;6184953;23;20009;-75
2022/01/27 00:23:54;;;;;;;31.08;14.55;;;6.10;99.90;;;;;;6159300;23;20016;-75
2022/01/27 00:26:20;;;;;;;28.00;14.95;;;6.10;99.90;;;;;;6158461;23;20396;-75
2022/01/27 00:28:48;;;;;;;31.95;15.25;;;6.10;99.90;;;;;;6185428;23;20017;-75
2022/01/27 00:31:15;;;;;;;33.30;16.00;;;6.10;99.90;;;;;;6185765;23;20456;-75
2022/01/27 00:33:42;;;;;;;27.40;14.18;;;6.10;99.90;;;;;;6184702;23;20017;-75
2022/01/27 00:36:08;;;;;;;34.17;15.27;;;6.10;99.90;;;;;;6187958;23;20155;-75
2022/01/27 00:38:33;;;;;;;31.52;15.30;;;6.10;99.90;;;;;;6187858;23;20040;-75
2022/01/27 00:40:59;;;;;;;37.33;16.38;;;6.10;99.90;;;;;;6186677;23;20025;-75
2022/01/27 00:43:25;;;;;;;30.52;15.85;;;6.10;99.90;;;;;;6161051;23;20021;-75
2022/01/27 00:45:51;;;;;;;37.47;16.92;;;6.10;99.90;;;;;;6160676;23;20024;-75
2022/01/27 00:48:17;;;;;;;32.38;15.60;;;6.10;99.90;;;;;;6186837;23;20013;-75
2022/01/27 00:50:48;;;;;;;33.22;15.20;;;6.10;99.90;;;;;;6187722;23;20048;-75
2022/01/27 00:55:52;;;;;;;34.10;16.15;;;6.10;99.90;;;;;;6186391;23;20028;-75
2022/01/27 00:58:37;;;;;;;31.95;15.82;;;6.10;99.90;;;;;;6187653;23;20013;-75
2022/01/27 01:01:08;;;;;;;;;;;6.00;99.90;;;;;;6187660;23;20052;-75
2022/01/27 01:03:39;;;;;;;37.03;13.68;;;6.00;99.90;;;;;;6186836;23;19916;-75
2022/01/27 01:09:18;;;;;;;27.98;15.30;;;6.00;99.90;;;;;;6134676;23;20057;-76
2022/01/27 01:12:05;;;;;;;30.70;17.35;;;5.90;99.90;;;;;;6160794;23;20033;-76
2022/01/27 01:17:30;;;;;;;32.63;16.40;;;5.90;99.90;;;;;;6186660;23;20059;-75
2022/01/27 01:33:07;;;;;;;35.58;17.00;;;5.80;99.90;;;;;;6187390;23;20058;-74
2022/01/27 01:35:48;;;;;;;34.85;17.63;;;5.90;99.90;;;;;;6186891;23;20471;-75
2022/01/27 01:38:21;;;;;;;34.83;16.92;;;5.80;99.90;;;;;;6185824;23;20052;-74
2022/01/27 01:40:50;;;;;;;39.70;18.65;;;5.80;99.90;;;;;;6160814;23;20080;-74
2022/01/27 01:43:17;;;;;;;30.58;18.02;;;5.80;99.90;;;;;;6160270;23;20060;-74
2022/01/27 01:45:42;;;;;;;31.90;16.23;;;5.80;99.90;;;;;;6185778;23;20015;-74
2022/01/27 01:48:08;;;;;;;38.72;15.65;;;5.80;99.90;;;;;;6159979;23;20087;-74
2022/01/27 01:50:35;;;;;;;32.03;17.30;;;5.80;99.90;;;;;;6160624;23;20024;-74
2022/01/27 01:53:01;;;;;;;29.23;17.08;;;5.70;99.90;;;;;;6186392;23;20330;-74
2022/01/27 01:55:28;;;;;;;33.88;16.83;;;5.70;99.90;;;;;;6186556;23;20017;-75
2022/01/27 01:57:57;;;;;;;31.50;17.13;;;5.70;99.90;;;;;;6159398;23;20021;-74
2022/01/27 02:00:23;;;;;;;39.45;18.80;;;5.60;99.90;;;;;;6160354;23;20092;-74
2022/01/27 02:02:49;;;;;;;38.63;19.17;;;5.60;99.90;;;;;;6186729;23;20377;-74
2022/01/27 02:05:18;;;;;;;42.65;20.13;;;5.60;99.90;;;;;;6185986;23;20060;-74
2022/01/27 02:08:01;;;;;;;36.42;19.17;;;5.60;99.90;;;;;;6187105;23;20013;-74
2022/01/27 02:17:58;;;;;;;37.55;18.63;;;5.60;99.90;;;;;;6159914;23;20021;-74
2022/01/27 02:19:20;;;;;;;40.75;20.23;;;5.70;99.90;;;;;;6159395;23;20021;-74
2022/01/27 02:21:48;;;;;;;34.40;20.33;;;5.70;99.90;;;;;;6186563;23;20472;-74
2022/01/27 02:24:16;;;;;;;33.47;19.38;;;5.70;99.90;;;;;;6186904;23;20021;-74
2022/01/27 02:26:42;;;;;;;38.08;19.83;;;5.70;99.90;;;;;;6185823;23;20017;-74
2022/01/27 02:29:09;;;;;;;37.25;20.98;;;5.80;99.90;;;;;;6160299;23;20028;-74
2022/01/27 02:31:35;;;;;;;43.25;21.10;;;5.80;99.90;;;;;;6186796;23;20052;-74
2022/01/27 02:34:01;;;;;;;31.52;19.42;;;5.80;99.90;;;;;;6185140;23;20017;-74
2022/01/27 02:36:27;;;;;;;36.72;20.13;;;5.80;99.90;;;;;;6186771;23;20092;-74
2022/01/27 02:38:54;;;;;;;30.33;18.20;;;5.80;99.90;;;;;;6186743;23;20329;-74
2022/01/27 02:41:25;;;;;;;36.20;19.20;;;5.80;99.90;;;;;;6185418;23;20020;-74
2022/01/27 02:43:51;;;;;;;45.42;20.95;;;5.80;99.90;;;;;;6186687;23;20017;-74
2022/01/27 02:46:21;;;;;;;35.03;19.33;;;5.80;99.90;;;;;;6186321;23;20013;-74
2022/01/27 02:48:47;;;;;;;38.05;21.60;;;5.90;99.90;;;;;;6185877;23;20099;-74
2022/01/27 02:51:13;;;;;;;44.28;20.92;;;5.90;99.90;;;;;;6186569;23;20021;-74
2022/01/27 02:53:38;;;;;;;38.33;19.63;;;5.90;99.90;;;;;;6186518;23;20017;-75
2022/01/27 02:56:06;;;;;;;36.88;21.60;;;5.90;99.90;;;;;;6158518;23;20025;-74
2022/01/27 02:58:31;;;;;;;37.13;21.75;;;5.90;99.90;;;;;;6159420;23;20028;-74
2022/01/27 03:00:57;;;;;;;48.92;23.58;;;5.90;99.90;;;;;;6158837;23;20438;-74
2022/01/27 03:03:23;;;;;;;37.78;20.40;;;5.90;99.90;;;;;;6159049;23;20021;-76
2022/01/27 03:05:48;;;;;;;39.38;21.40;;;6.00;99.90;;;;;;6186586;23;20056;-74
2022/01/27 03:08:14;;;;;;;38.33;21.55;;;6.00;99.90;;;;;;6158708;23;20021;-74
2022/01/27 03:10:48;;;;;;;30.70;19.50;;;6.00;99.90;;;;;;6185975;23;20017;-74
2022/01/27 03:13:15;;;;;;;40.95;19.38;;;6.00;99.90;;;;;;6159728;23;20044;-74
2022/01/27 03:15:41;;;;;;;34.78;20.42;;;6.00;99.90;;;;;;6185534;23;20116;-74
2022/01/27 03:18:06;;;;;;;39.13;20.55;;;6.00;99.90;;;;;;6186293;23;20442;-74
2022/01/27 03:20:33;;;;;;;35.47;19.58;;;6.00;99.90;;;;;;6186475;23;20021;-74
2022/01/27 03:23:02;;;;;;;34.63;19.85;;;6.00;99.90;;;;;;6185263;23;20437;-74
2022/01/27 03:25:28;;;;;;;38.85;18.27;;;6.00;99.90;;;;;;6186179;23;20020;-74
2022/01/27 03:27:54;;;;;;;35.53;20.27;;;6.10;99.90;;;;;;6159319;23;20068;-75
2022/01/27 03:30:20;;;;;;;37.45;20.45;;;6.00;99.90;;;;;;6185093;23;20025;-74
2022/01/27 03:32:46;;;;;;;34.33;20.13;;;6.00;99.90;;;;;;6186198;23;20036;-74
2022/01/27 03:35:12;;;;;;;41.35;19.35;;;6.00;99.90;;;;;;6185722;23;20438;-73
2022/01/27 03:37:38;;;;;;;39.85;21.10;;;6.20;99.90;;;;;;6185066;23;20384;-75
2022/01/27 03:40:04;;;;;;;45.13;19.85;;;6.10;99.90;;;;;;6159631;23;20024;-74
2022/01/27 03:42:30;;;;;;;39.15;19.85;;;6.00;99.90;;;;;;6159204;23;20341;-75
2022/01/27 03:44:56;;;;;;;42.33;21.48;;;6.10;99.90;;;;;;6185341;23;20021;-74
2022/01/27 03:47:22;;;;;;;31.90;18.02;;;6.10;99.90;;;;;;6186174;23;20430;-74
2022/01/27 03:49:47;;;;;;;37.60;19.55;;;6.10;99.90;;;;;;6159551;23;20130;-74
2022/01/27 03:52:13;;;;;;;40.00;19.73;;;6.10;99.90;;;;;;6184709;23;20024;-74
2022/01/27 03:54:39;;;;;;;35.95;16.88;;;6.10;99.90;;;;;;6134704;23;20021;-74
2022/01/27 03:57:05;;;;;;;39.70;18.35;;;6.10;99.90;;;;;;6185733;23;20168;-74
2022/01/27 03:59:30;;;;;;;28.98;16.55;;;6.10;99.90;;;;;;6184656;23;20025;-74
2022/01/27 04:01:57;;;;;;;34.63;17.42;;;6.10;99.90;;;;;;6159441;23;20079;-74
2022/01/27 04:04:24;;;;;;;36.72;17.60;;;6.20;99.90;;;;;;6184629;23;20024;-74
2022/01/27 04:06:52;;;;;;;38.70;18.35;;;6.10;99.90;;;;;;6186201;23;20381;-74
2022/01/27 04:09:18;;;;;;;36.25;17.67;;;6.10;99.90;;;;;;6184930;23;20056;-75
2022/01/27 04:11:44;;;;;;;38.30;17.13;;;6.20;99.90;;;;;;6158316;23;20017;-75
2022/01/27 04:14:13;;;;;;;36.97;17.77;;;6.20;99.90;;;;;;6185912;23;20020;-75
2022/01/27 04:16:39;;;;;;;36.55;17.75;;;6.20;99.90;;;;;;6185653;23;20087;-74
2022/01/27 04:19:05;;;;;;;39.17;16.20;;;6.20;99.90;;;;;;6158298;23;20460;-75
2022/01/27 04:21:31;;;;;;;52.95;18.88;;;6.20;99.90;;;;;;6159248;23;20017;-75
2022/01/27 04:23:56;;;;;;;33.15;16.65;;;6.20;99.90;;;;;;6159548;23;20021;-74
2022/01/27 04:26:30;;;;;;;41.05;17.73;;;6.20;99.90;;;;;;6184565;23;20021;-74
2022/01/27 04:28:56;;;;;;;39.15;17.48;;;6.20;99.90;;;;;;6185492;23;20017;-75
2022/01/27 04:31:24;;;;;;;33.50;17.60;;;6.30;99.90;;;;;;6159241;23;20104;-74
2022/01/27 04:33:51;;;;;;;37.28;16.98;;;6.20;99.90;;;;;;6185034;23;20087;-75
2022/01/27 04:36:24;;;;;;;39.58;18.23;;;6.30;99.90;;;;;;6185811;23;20044;-74
2022/01/27 04:38:57;;;;;;;38.67;17.40;;;6.20;99.90;;;;;;6185774;23;20035;-75
2022/01/27 04:41:36;;;;;;;40.50;16.83;;;6.30;99.90;;;;;;6185031;23;20117;-75
2022/01/27 04:44:40;;;;;;;35.90;17.38;;;6.30;99.90;;;;;;6185533;23;20023;-74
2022/01/27 04:49:19;;;;;;;37.83;17.08;;;6.30;99.90;;;;;;6185980;23;20032;-74
2022/01/27 04:51:45;;;;;;;40.80;17.23;;;6.20;99.90;;;;;;6185527;23;20024;-74
2022/01/27 04:54:18;;;;;;;41.17;16.83;;;6.30;99.90;;;;;;6184415;23;20052;-74
2022/01/27 04:56:44;;;;;;;35.40;16.88;;;6.20;99.90;;;;;;6186042;23;20017;-75
2022/01/27 04:59:17;;;;;;;35.72;16.50;;;6.20;99.90;;;;;;6159028;23;20323;-74
2022/01/27 05:01:49;;;;;;;35.25;15.05;;;6.30;99.90;;;;;;6158286;23;20025;-75
2022/01/27 05:04:18;;;;;;;39.53;15.52;;;6.30;99.90;;;;;;6159192;23;20442;-75
2022/01/27 05:06:44;;;;;;;39.20;16.42;;;6.20;99.90;;;;;;6185977;23;20048;-75
2022/01/27 05:09:10;;;;;;;44.92;17.92;;;6.30;99.90;;;;;;6157776;23;20017;-74
2022/01/27 05:11:43;;;;;;;38.78;14.75;;;6.40;99.90;;;;;;6185903;23;20101;-75
2022/01/27 05:14:15;;;;;;;37.47;15.00;;;6.30;99.90;;;;;;6158941;23;20074;-75
2022/01/27 05:16:41;;;;;;;29.65;14.05;;;6.40;99.90;;;;;;6184403;23;20057;-74
2022/01/27 05:19:07;;;;;;;38.95;15.70;;;6.40;99.90;;;;;;6158994;23;20021;-75
2022/01/27 05:21:33;;;;;;;42.03;15.13;;;6.40;99.90;;;;;;6186368;23;20071;-74
2022/01/27 05:24:00;;;;;;;33.88;15.00;;;6.40;99.90;;;;;;6186144;23;20104;-75
2022/01/27 05:26:26;;;;;;;37.33;16.30;;;6.40;99.90;;;;;;6187453;23;20079;-74
2022/01/27 05:28:52;;;;;;;51.17;19.17;;;6.40;99.90;;;;;;6186187;23;20013;-75
2022/01/27 05:31:17;;;;;;;35.63;15.68;;;6.40;99.90;;;;;;6187385;23;20384;-74
2022/01/27 05:33:43;;;;;;;31.88;14.52;;;6.40;99.90;;;;;;6187498;23;20017;-74
2022/01/27 05:36:09;;;;;;;36.72;14.75;;;6.30;99.90;;;;;;6186426;23;20024;-75
2022/01/27 05:38:37;;;;;;;41.15;15.50;;;6.40;99.90;;;;;;6186872;23;20337;-75
2022/01/27 05:41:04;;;;;;;34.40;15.32;;;6.30;99.90;;;;;;6187317;23;20017;-75
2022/01/27 05:43:32;;;;;;;38.53;16.00;;;6.30;99.90;;;;;;6159729;23;20021;-74
2022/01/27 05:45:58;;;;;;;40.72;15.85;;;6.30;99.90;;;;;;6186966;23;20044;-75
2022/01/27 05:48:23;;;;;;;43.80;15.02;;;6.30;99.90;;;;;;6186903;23;20023;-74
2022/01/27 05:50:49;;;;;;;44.33;15.93;;;6.30;99.90;;;;;;6159749;23;20024;-75
2022/01/27 05:53:15;;;;;;;44.58;16.17;;;6.30;99.90;;;;;;6187052;23;20434;-75
2022/01/27 05:55:41;;;;;;;47.20;17.42;;;6.30;99.90;;;;;;6186985;23;20017;-75
2022/01/27 05:58:07;;;;;;;50.65;16.17;;;6.30;99.90;;;;;;6159450;23;20461;-75
2022/01/27 06:00:32;;;;;;;43.15;16.00;;;6.30;99.90;;;;;;6186907;23;20326;-75
2022/01/27 06:02:58;;;;;;;42.60;15.32;;;6.30;99.90;;;;;;6186786;23;20020;-75
2022/01/27 06:05:26;;;;;;;40.38;16.08;;;6.30;99.90;;;;;;6185951;23;20093;-75
2022/01/27 06:07:52;;;;;;;49.33;16.48;;;6.20;99.90;;;;;;6187088;23;20025;-75
2022/01/27 06:10:18;;;;;;;47.35;17.90;;;6.30;99.90;;;;;;6186739;23;20381;-75
2022/01/27 06:12:48;;;;;;;45.78;15.20;;;6.50;99.90;;;;;;6185922;23;20017;-76
2022/01/27 06:15:14;;;;;;;56.40;16.80;;;6.40;99.90;;;;;;6186885;23;20021;-76
2022/01/27 06:17:40;;;;;;;39.25;15.07;;;6.40;99.90;;;;;;6186983;23;20327;-75
2022/01/27 06:20:07;;;;;;;42.13;13.57;;;6.40;99.90;;;;;;6186036;23;20068;-75
2022/01/27 06:22:32;;;;;;;41.38;14.82;;;6.40;99.90;;;;;;6186674;23;20084;-75
2022/01/27 06:24:58;;;;;;;41.83;14.50;;;6.50;99.90;;;;;;6185994;23;20389;-75
2022/01/27 06:27:25;;;;;;;42.33;14.98;;;6.50;99.90;;;;;;6186573;23;20017;-74
2022/01/27 06:29:51;;;;;;;39.75;14.10;;;6.50;99.90;;;;;;6159858;23;20021;-74
2022/01/27 06:32:17;;;;;;;25.35;12.73;;;6.60;99.90;;;;;;6159312;23;20064;-74
2022/01/27 06:34:43;;;;;;;34.10;13.57;;;6.60;99.90;;;;;;6160054;23;20021;-74
2022/01/27 06:37:08;;;;;;;35.83;14.02;;;6.60;99.90;;;;;;6160287;23;20399;-75
2022/01/27 06:39:34;;;;;;;38.85;12.63;;;6.60;99.90;;;;;;6159216;23;20025;-74
2022/01/27 06:42:01;;;;;;;30.55;12.52;;;6.60;99.90;;;;;;6186761;23;20484;-75
2022/01/27 06:44:27;;;;;;;40.08;13.23;;;6.70;99.90;;;;;;6186880;23;20017;-75
2022/01/27 06:46:53;;;;;;;38.05;13.73;;;6.70;99.90;;;;;;6159259;23;20017;-75
2022/01/27 06:49:18;;;;;;;36.30;13.32;;;6.70;99.90;;;;;;6187065;23;20115;-76
2022/01/27 06:51:45;;;;;;;35.08;13.73;;;6.70;99.90;;;;;;6186445;23;20013;-76
2022/01/27 06:54:12;;;;;;;29.30;12.68;;;6.70;99.90;;;;;;6185395;23;20052;-76
2022/01/27 06:56:39;;;;;;;37.33;13.32;;;6.70;99.90;;;;;;6186412;23;20021;-75
2022/01/27 06:59:05;;;;;;;38.08;13.55;;;6.70;99.90;;;;;;6186207;23;20013;-76
2022/01/27 07:01:31;;;;;;;22.83;10.35;;;6.70;99.90;;;;;;6185274;23;20056;-75
2022/01/27 07:03:57;;;;;;;33.88;11.98;;;6.80;99.90;;;;;;6186291;23;20017;-75
2022/01/27 07:06:22;;;;;;;36.55;12.95;;;6.70;99.90;;;;;;6186606;23;20092;-75
2022/01/27 07:08:48;;;;;;;28.65;12.98;;;6.70;99.90;;;;;;6158870;23;20020;-75
2022/01/27 07:11:14;;;;;;;35.25;12.60;;;6.70;99.90;;;;;;6186108;23;20041;-75
2022/01/27 07:13:40;;;;;;;33.08;11.82;;;6.70;99.90;;;;;;6186074;23;20025;-75
2022/01/27 07:16:09;;;;;;;28.17;10.13;;;6.70;99.90;;;;;;6158814;23;20021;-76
2022/01/27 07:18:36;;;;;;;24.77;10.57;;;6.70;99.90;;;;;;6159652;23;20052;-75
2022/01/27 07:21:03;;;;;;;36.65;12.73;;;6.80;99.90;;;;;;6158678;23;20092;-76
2022/01/27 07:23:29;;;;;;;35.40;11.88;;;6.70;99.90;;;;;;6184679;23;20091;-76
2022/01/27 07:25:55;;;;;;;35.33;11.70;;;6.80;99.90;;;;;;6186136;23;20429;-75
2022/01/27 07:28:20;;;;;;;30.88;11.60;;;6.80;99.90;;;;;;6185090;23;20013;-76
2022/01/27 07:30:47;;;;;;;36.47;11.90;;;6.80;99.90;;;;;;6159448;23;20331;-76
2022/01/27 07:33:12;;;;;;;31.02;12.43;;;6.80;99.90;;;;;;6186178;23;20021;-76
2022/01/27 07:35:38;;;;;;;35.95;12.98;;;6.80;99.90;;;;;;6158445;23;20409;-76
2022/01/27 07:38:05;;;;;;;31.58;12.23;;;6.80;99.90;;;;;;6159531;23;20024;-75
2022/01/27 07:40:31;;;;;;;37.60;12.57;;;6.90;99.90;;;;;;6186009;23;20017;-75
2022/01/27 07:42:57;;;;;;;35.08;12.88;;;6.90;99.90;;;;;;6184719;23;20028;-76
2022/01/27 07:45:23;;;;;;;43.42;13.32;;;6.90;99.90;;;;;;6185695;23;20013;-75
2022/01/27 07:47:48;;;;;;;42.50;13.30;;;6.90;99.90;;;;;;6186057;23;20024;-75
2022/01/27 07:50:14;;;;;;;42.20;11.43;;;7.00;99.90;;;;;;6185175;23;20093;-75
2022/01/27 07:52:42;;;;;;;36.58;13.48;;;7.00;99.90;;;;;;6185232;23;20353;-75
2022/01/27 07:55:09;;;;;;;33.45;12.25;;;7.00;99.90;;;;;;6185891;23;20095;-75
2022/01/27 07:57:35;;;;;;;36.20;11.13;;;7.00;99.90;;;;;;6184427;23;20028;-75
2022/01/27 08:00:03;;;;;;;32.40;11.40;;;7.00;99.90;;;;;;6159395;23;20449;-75
2022/01/27 08:02:29;;;;;;;40.22;11.23;;;7.10;99.90;;;;;;6185771;23;20017;-75
2022/01/27 08:04:55;;;;;;;31.35;11.82;;;7.10;99.90;;;;;;6184870;23;20448;-76
2022/01/27 08:07:21;;;;;;;34.53;11.98;;;7.10;99.90;;;;;;6159397;23;20457;-76
2022/01/27 08:09:48;;;;;;;36.00;10.90;;;7.20;99.90;;;;;;6185545;23;20021;-76
2022/01/27 08:12:14;;;;;;;36.08;10.43;;;7.20;99.90;;;;;;6185000;23;20103;-77
2022/01/27 08:14:40;;;;;;;34.03;10.50;;;7.20;99.90;;;;;;6185701;23;20017;-76
2022/01/27 08:17:06;;;;;;;26.40;9.20;;;7.20;99.90;;;;;;6185890;23;20024;-76
2022/01/27 08:19:32;;;;;;;34.75;10.60;;;7.30;99.90;;;;;;6184430;23;20017;-76
2022/01/27 08:21:58;;;;;;;31.20;9.77;;;7.30;99.90;;;;;;6185618;23;20024;-76
2022/01/27 08:24:23;;;;;;;30.60;9.90;;;7.30;99.90;;;;;;6185829;23;20017;-76
2022/01/27 08:26:52;;;;;;;31.90;10.30;;;7.30;99.90;;;;;;6184372;23;20096;-76
2022/01/27 08:32:06;;;;;;;24.90;8.52;;;7.40;99.90;;;;;;6184722;23;20017;-75
2022/01/27 08:34:36;;;;;;;28.40;8.75;;;7.40;99.90;;;;;;6185660;23;20023;-75
2022/01/27 08:37:09;;;;;;;28.08;9.70;;;7.50;99.90;;;;;;6186065;23;20021;-76
2022/01/27 08:39:35;;;;;;;29.25;7.80;;;7.50;99.90;;;;;;6184428;23;20021;-75
2022/01/27 08:42:01;;;;;;;27.60;8.60;;;7.60;99.90;;;;;;6185340;23;20017;-75
2022/01/27 08:44:27;;;;;;;30.77;7.80;;;7.60;99.90;;;;;;6158774;23;20053;-76
2022/01/27 08:46:55;;;;;;;26.52;8.18;;;7.60;99.90;;;;;;6184712;23;20049;-76
2022/01/27 08:49:24;;;;;;;34.80;8.65;;;7.70;99.90;;;;;;6185698;23;20024;-76
2022/01/27 08:51:50;;;;;;;24.70;7.32;;;7.70;99.90;;;;;;6185605;23;20068;-76
2022/01/27 08:54:16;;;;;;;26.63;7.28;;;7.70;99.90;;;;;;6158240;23;20429;-77
2022/01/27 08:56:42;;;;;;;28.58;8.13;;;7.70;99.90;;;;;;6160782;23;20032;-77
2022/01/27 08:59:08;;;;;;;33.55;8.70;;;7.70;99.90;;;;;;6187316;23;20036;-76
2022/01/27 09:01:34;;;;;;;35.95;8.15;;;7.70;99.90;;;;;;6160090;23;20430;-76
2022/01/27 09:04:00;;;;;;;29.35;7.65;;;7.70;99.90;;;;;;6160463;23;20028;-76
2022/01/27 09:06:28;;;;;;;26.55;6.60;;;7.70;99.90;;;;;;6187241;23;20013;-75
2022/01/27 09:08:55;;;;;;;23.33;6.63;;;7.70;99.90;;;;;;6185636;23;20009;-76
2022/01/27 09:11:21;;;;;;;27.23;6.68;;;7.70;99.90;;;;;;6187542;23;20388;-76
2022/01/27 09:13:47;;;;;;;31.10;7.82;;;7.70;99.90;;;;;;6185924;23;20024;-76
2022/01/27 09:16:13;;;;;;;23.80;8.05;;;7.80;99.90;;;;;;6160756;23;20358;-75
2022/01/27 09:18:39;;;;;;;34.80;6.90;;;7.80;99.90;;;;;;6187062;23;20025;-76
2022/01/27 09:21:11;;;;;;;19.27;6.05;;;7.80;99.90;;;;;;6185974;23;20458;-76
2022/01/27 09:23:37;;;;;;;30.60;7.70;;;7.90;99.90;;;;;;6186825;23;20087;-75
2022/01/27 09:26:07;;;;;;;23.58;5.32;;;7.90;99.90;;;;;;6187519;23;20377;-76
2022/01/27 09:28:33;;;;;;;20.80;5.60;;;8.00;99.90;;;;;;6185718;23;20028;-77
2022/01/27 09:31:01;;;;;;;28.42;6.30;;;8.00;99.90;;;;;;6186879;23;20012;-75
2022/01/27 09:33:28;;;;;;;18.30;4.70;;;8.10;99.90;;;;;;6186845;23;20509;-75
2022/01/27 09:35:54;;;;;;;17.77;5.60;;;8.20;99.90;;;;;;6159505;23;20021;-76
2022/01/27 09:38:20;;;;;;;20.85;5.32;;;8.20;99.90;;;;;;6187126;23;20076;-75
2022/01/27 09:40:50;;;;;;;21.40;5.57;;;8.30;99.90;;;;;;6187421;23;20023;-75
2022/01/27 09:43:16;;;;;;;15.75;3.80;;;8.30;99.90;;;;;;6185818;23;20453;-76
2022/01/27 09:45:43;;;;;;;25.60;6.15;;;8.30;99.90;;;;;;6187325;23;20021;-76
2022/01/27 09:48:14;;;;;;;20.15;5.47;;;8.30;99.90;;;;;;6186247;23;20028;-75
2022/01/27 09:53:10;;;;;;;15.27;5.32;;;8.30;99.90;;;;;;6186664;23;20024;-75
2022/01/27 09:55:37;;;;;;;22.33;5.57;;;8.30;99.90;;;;;;6187136;23;20023;-75
2022/01/27 09:58:04;;;;;;;24.42;5.63;;;8.40;99.90;;;;;;6159307;23;20341;-76
2022/01/27 10:00:29;;;;;;;25.33;5.35;;;8.40;99.90;;;;;;6160477;23;20025;-75
2022/01/27 10:03:04;;;;;;;24.25;6.50;;;8.40;99.90;;;;;;6186392;23;20021;-75
2022/01/27 10:05:31;;;;;;;29.05;6.53;;;8.40;99.90;;;;;;6187222;23;20017;-75
2022/01/27 10:08:13;;;;;;;24.63;6.13;;;8.40;99.90;;;;;;6186474;23;20020;-75
2022/01/27 10:10:45;;;;;;;25.92;5.65;;;8.50;99.90;;;;;;6185465;23;20057;-74
2022/01/27 10:13:27;;;;;;;18.27;5.30;;;8.50;99.90;;;;;;6186659;23;20013;-75
2022/01/27 10:15:54;;;;;;;28.88;6.00;;;8.50;99.90;;;;;;6186484;23;20025;-75
2022/01/27 10:18:24;;;;;;;25.35;5.82;;;8.50;99.90;;;;;;6159441;23;20025;-75
2022/01/27 10:20:59;;;;;;;22.80;5.10;;;8.50;99.90;;;;;;6187195;23;20031;-75
2022/01/27 10:23:28;;;;;;;;;;;8.50;99.90;;;;;;6187307;23;20055;-76
2022/01/27 10:26:08;;;;;;;21.45;4.90;;;8.50;99.90;;;;;;6185182;23;19916;-74
2022/01/27 10:31:10;;;;;;;18.73;4.55;;;8.60;99.90;;;;;;6159198;23;20092;-75
2022/01/27 10:33:49;;;;;;;19.13;5.18;;;8.60;99.90;;;;;;6186884;23;20021;-75
2022/01/27 10:36:29;;;;;;;20.00;4.43;;;8.60;99.90;;;;;;6187079;23;20094;-76
2022/01/27 10:38:57;;;;;;;26.48;4.63;;;8.70;99.90;;;;;;6185404;23;20071;-75
2022/01/27 10:41:29;;;;;;;23.27;5.20;;;8.70;99.90;;;;;;6186419;23;20024;-75
2022/01/27 10:44:17;;;;;;;17.58;4.05;;;8.80;99.90;;;;;;6186239;23;20495;-74
2022/01/27 10:47:04;;;;;;;19.15;4.10;;;8.80;99.90;;;;;;6159008;23;20449;-74
2022/01/27 10:49:32;;;;;;;22.27;5.32;;;8.80;99.90;;;;;;6186556;23;20017;-75
2022/01/27 10:51:58;;;;;;;15.10;3.67;;;8.90;99.90;;;;;;6186221;23;20039;-75
2022/01/27 10:54:48;;;;;;;20.73;3.88;;;8.90;99.90;;;;;;6185032;23;20097;-75
2022/01/27 10:57:15;;;;;;;22.88;4.07;;;8.80;99.90;;;;;;6186106;23;20017;-76
2022/01/27 10:59:42;;;;;;;19.75;4.72;;;8.80;99.90;;;;;;6185589;23;20092;-75
2022/01/27 11:02:10;;;;;;;18.08;4.15;;;8.80;99.90;;;;;;6186423;23;20075;-75
2022/01/27 11:04:38;;;;;;;17.48;4.78;;;8.80;99.90;;;;;;6185935;23;20100;-75
2022/01/27 11:07:08;;;;;;;15.18;3.38;;;8.80;99.90;;;;;;6185545;23;20349;-75
2022/01/27 11:09:37;;;;;;;22.98;4.55;;;8.90;99.90;;;;;;6185948;23;20093;-74
2022/01/27 11:12:08;;;;;;;27.42;5.57;;;8.90;99.90;;;;;;6186319;23;20040;-75
2022/01/27 11:14:35;;;;;;;21.23;4.75;;;8.90;99.90;;;;;;6185202;23;20013;-75
2022/01/27 11:17:05;;;;;;;13.63;4.38;;;8.90;99.90;;;;;;6185783;23;20021;-74
2022/01/27 11:22:11;;;;;;;23.15;3.80;;;9.00;99.90;;;;;;6185184;23;20017;-75
2022/01/27 11:27:31;;;;;;;24.00;5.55;;;9.00;99.90;;;;;;6158596;23;20033;-74
2022/01/27 11:30:04;;;;;;;19.70;4.22;;;9.00;99.90;;;;;;6185692;23;20051;-74
2022/01/27 11:32:40;;;;;;;20.52;4.00;;;9.10;99.90;;;;;;6186189;23;20017;-74
2022/01/27 11:35:20;;;;;;;18.92;4.13;;;9.00;99.90;;;;;;6158119;23;20021;-74
2022/01/27 11:37:54;;;;;;;13.13;3.95;;;9.00;99.90;;;;;;6159734;23;20103;-74
2022/01/27 11:40:33;;;;;;;14.13;3.57;;;9.00;99.90;;;;;;6185962;23;20021;-74
2022/01/27 11:42:58;;;;;;;13.60;3.13;;;9.10;99.90;;;;;;6184825;23;20769;-74
2022/01/27 11:45:28;;;;;;;24.23;4.32;;;9.10;99.90;;;;;;6185671;23;20052;-75
2022/01/27 11:48:01;;;;;;;18.83;4.35;;;9.10;99.90;;;;;;6186099;23;20017;-74
2022/01/27 11:50:37;;;;;;;20.85;4.57;;;9.10;99.90;;;;;;6184668;23;20049;-74
2022/01/27 11:53:07;;;;;;;17.75;4.38;;;9.10;99.90;;;;;;6159364;23;20021;-74
2022/01/27 11:55:33;;;;;;;22.23;4.35;;;9.10;99.90;;;;;;6184618;23;20021;-75
2022/01/27 11:58:17;;;;;;;25.23;3.65;;;9.10;99.90;;;;;;6185467;23;20024;-74
2022/01/27 12:01:22;;;;;;;28.15;6.53;;;9.10;99.90;;;;;;6185984;23;20017;-74
2022/01/27 12:04:06;;;;;;;24.13;4.78;;;9.10;99.90;;;;;;6184275;23;20449;-74
2022/01/27 12:06:39;;;;;;;21.10;4.07;;;9.20;99.90;;;;;;6186151;23;20020;-74
2022/01/27 12:09:20;;;;;;;20.23;4.00;;;9.20;99.90;;;;;;6185452;23;20325;-74
2022/01/27 12:11:53;;;;;;;18.63;4.10;;;9.10;99.90;;;;;;6158086;23;20021;-74
2022/01/27 12:14:46;;;;;;;22.58;4.38;;;9.10;99.90;;;;;;6185489;23;20508;-74
2022/01/27 12:17:16;;;;;;;27.50;4.68;;;9.20;99.90;;;;;;6169777;23;20040;-74
2022/01/27 12:19:58;;;;;;;26.33;5.40;;;9.20;99.90;;;;;;6186318;23;20346;-74
2022/01/27 12:22:27;;;;;;;31.50;4.88;;;9.10;99.90;;;;;;6185343;23;20059;-74
2022/01/27 12:24:53;;;;;;;27.25;4.85;;;9.10;99.90;;;;;;6184651;23;20060;-74
2022/01/27 12:27:21;;;;;;;26.17;4.90;;;9.10;99.90;;;;;;6185351;23;20021;-73
2022/01/27 12:29:49;;;;;;;20.98;3.85;;;9.10;99.90;;;;;;6185706;23;20071;-74
2022/01/27 12:32:25;;;;;;;26.13;4.85;;;9.10;99.90;;;;;;6159991;23;20020;-74
2022/01/27 12:34:55;;;;;;;16.15;3.78;;;9.10;99.90;;;;;;6187842;23;20028;-74
2022/01/27 12:37:33;;;;;;;31.35;4.68;;;9.10;99.90;;;;;;6187795;23;20013;-74
2022/01/27 12:40:20;;;;;;;24.60;4.32;;;9.20;99.90;;;;;;6186849;23;20044;-73
2022/01/27 12:42:49;;;;;;;24.20;5.35;;;9.20;99.90;;;;;;6186693;23;20021;-74
2022/01/27 12:45:15;;;;;;;24.83;3.85;;;9.20;99.90;;;;;;6186350;23;20063;-74
2022/01/27 12:47:43;;;;;;;16.27;3.65;;;9.20;99.90;;;;;;6160474;23;20021;-74
2022/01/27 12:50:15;;;;;;;27.92;4.75;;;9.20;99.90;;;;;;6187338;23;20056;-74
2022/01/27 12:52:47;;;;;;;23.45;3.85;;;9.20;99.90;;;;;;6187283;23;20445;-74
2022/01/27 12:55:28;;;;;;;16.25;2.63;;;9.20;99.90;;;;;;6160966;23;20052;-74
2022/01/27 12:58:05;;;;;;;16.83;4.32;;;9.30;99.90;;;;;;6160646;23;20033;-74
2022/01/27 13:00:41;;;;;;;27.67;4.22;;;9.20;99.90;;;;;;6186163;23;20462;-74
2022/01/27 13:03:08;;;;;;;19.63;4.22;;;9.20;99.90;;;;;;6160647;23;20441;-74
2022/01/27 13:05:35;;;;;;;22.50;4.35;;;9.20;99.90;;;;;;6187359;23;20021;-75
2022/01/27 13:08:10;;;;;;;21.40;3.97;;;9.20;99.90;;;;;;6159657;23;20024;-74
2022/01/27 13:10:44;;;;;;;23.42;4.22;;;9.20;99.90;;;;;;6160802;23;20035;-74
2022/01/27 13:13:14;;;;;;;;;;;9.20;99.90;;;;;;6186926;23;20036;-74
2022/01/27 13:15:40;;;;;;;28.17;4.05;;;9.20;99.90;;;;;;6160769;23;19959;-74
2022/01/27 13:18:17;;;;;;;21.35;3.63;;;9.20;99.90;;;;;;6187093;23;20334;-73
2022/01/27 13:20:46;;;;;;;23.02;4.00;;;9.10;99.90;;;;;;6186627;23;20100;-74
2022/01/27 13:23:42;;;;;;;32.00;6.72;;;9.10;99.90;;;;;;6160601;23;20021;-74
2022/01/27 13:26:06;;;;;;;28.52;5.35;;;9.10;99.90;;;;;;6185255;23;20060;-74
2022/01/27 13:28:35;;;;;;;29.67;5.18;;;9.10;99.90;;;;;;6186305;23;20017;-74
2022/01/27 13:31:06;;;;;;;26.77;5.05;;;9.10;99.90;;;;;;6160686;23;20024;-75
2022/01/27 13:33:40;;;;;;;28.77;4.47;;;9.10;99.90;;;;;;6160576;23;20021;-74
2022/01/27 13:36:15;;;;;;;20.75;4.47;;;9.10;99.90;;;;;;6186450;23;20017;-74